Time;durP1;ratioP1;P1;durP2;ratioP2;P2;SDS_P1;SDS_P2;PMS_P1;PMS_P2;Temp;Humidity;BMP_temperature;BMP_pressure;BME280_temperature;BME280_humidity;BME280_pressure;Samples;Min_cycle;Max_cycle;Signal;HPM_P1;HPM_P2
2021/09/08 00:02:23;;;;;;;26.50;12.45;;;;;;;-149.78;100.00;49976.66;5071150;28;20037;-65
2021/09/08 00:04:49;;;;;;;29.20;13.35;;;;;;;-149.78;100.00;49998.19;5070966;28;20078;-65
2021/09/08 00:07:15;;;;;;;23.88;13.35;;;;;;;-149.78;100.00;49996.22;5076645;28;20036;-65
2021/09/08 00:09:41;;;;;;;24.35;13.93;;;;;;;-149.78;100.00;50000.13;5075269;28;20043;-65
2021/09/08 00:12:07;;;;;;;20.80;12.30;;;;;;;-149.78;100.00;49984.50;5094338;28;20364;-65
2021/09/08 00:14:33;;;;;;;27.15;13.13;;;;;;;-149.78;100.00;49986.44;5094886;28;20036;-65
2021/09/08 00:16:59;;;;;;;23.38;13.77;;;;;;;-149.78;100.00;50045.09;5078749;28;20536;-65
2021/09/08 00:19:25;;;;;;;24.13;13.20;;;;;;;-149.78;100.00;50033.38;5093258;28;20046;-65
2021/09/08 00:21:51;;;;;;;24.15;13.82;;;;;;;-149.78;100.00;50013.81;5091180;28;20040;-65
2021/09/08 00:24:17;;;;;;;21.63;13.32;;;;;;;-149.78;100.00;50006.00;5091612;28;20033;-65
2021/09/08 00:26:42;;;;;;;22.75;13.65;;;;;;;-149.78;100.00;50015.78;5091763;28;20131;-65
2021/09/08 00:29:08;;;;;;;27.83;13.00;;;;;;;-149.78;100.00;50019.69;5093800;28;20060;-65
2021/09/08 00:31:34;;;;;;;24.88;14.10;;;;;;;-149.78;100.00;50019.69;5094652;28;20364;-65
2021/09/08 00:33:59;;;;;;;23.20;14.32;;;;;;;-149.78;100.00;50021.63;5089340;28;20037;-65
2021/09/08 00:36:25;;;;;;;29.17;13.38;;;;;;;-149.78;100.00;50019.69;5075872;28;20048;-65
2021/09/08 00:38:51;;;;;;;24.30;13.77;;;;;;;-149.78;100.00;50009.91;5087499;28;20039;-65
2021/09/08 00:41:18;;;;;;;25.15;13.82;;;;;;;-149.78;100.00;50017.72;5096024;28;20038;-65
2021/09/08 00:43:44;;;;;;;23.55;12.32;;;;;;;-149.78;100.00;50029.47;5080751;28;20044;-65
2021/09/08 00:46:10;;;;;;;22.85;13.02;;;;;;;-149.78;100.00;50047.06;5086311;28;20071;-65
2021/09/08 00:48:36;;;;;;;25.08;13.63;;;;;;;-149.78;100.00;49994.25;5074785;28;20052;-65
2021/09/08 00:51:01;;;;;;;26.90;13.48;;;;;;;-149.78;100.00;50023.59;5078438;28;20043;-60
2021/09/08 00:53:28;;;;;;;25.65;12.45;;;;;;;-149.78;100.00;50025.56;5084498;28;20048;-60
2021/09/08 00:55:54;;;;;;;26.95;12.93;;;;;;;-149.78;100.00;50013.81;5090541;28;20035;-60
2021/09/08 00:58:20;;;;;;;24.65;13.82;;;;;;;-149.78;100.00;50021.63;5075134;28;20036;-59
2021/09/08 01:00:46;;;;;;;24.73;13.43;;;;;;;-149.78;100.00;50060.75;5090026;28;20084;-59
2021/09/08 01:03:12;;;;;;;24.17;12.45;;;;;;;-149.78;100.00;50045.09;5093216;28;20040;-59
2021/09/08 01:05:38;;;;;;;26.50;13.05;;;;;;;-149.78;100.00;50025.56;5081820;28;20052;-59
2021/09/08 01:08:04;;;;;;;24.15;12.70;;;;;;;-149.78;100.00;50037.28;5085019;28;20032;-60
2021/09/08 01:10:30;;;;;;;25.20;13.55;;;;;;;-149.78;100.00;50033.38;5082482;28;20152;-59
2021/09/08 01:12:56;;;;;;;22.85;12.63;;;;;;;-149.78;100.00;50025.56;5084674;28;20028;-60
2021/09/08 01:15:22;;;;;;;23.23;11.98;;;;;;;-149.78;100.00;49998.19;5064980;28;20367;-60
2021/09/08 01:17:49;;;;;;;24.42;13.20;;;;;;;-149.78;100.00;50045.09;5083423;28;20040;-60
2021/09/08 01:20:16;;;;;;;25.70;11.10;;;;;;;-149.78;100.00;50050.97;5079399;28;20032;-59
2021/09/08 01:22:52;;;;;;;21.15;12.75;;;;;;;-149.78;100.00;50017.72;5086699;28;20510;-59
2021/09/08 01:25:25;;;;;;;20.90;11.57;;;;;;;-149.78;100.00;50064.66;5068939;28;20032;-59
2021/09/08 01:27:52;;;;;;;20.30;11.25;;;;;;;-149.78;100.00;50021.63;5094168;28;20036;-60
2021/09/08 01:30:20;;;;;;;21.13;11.70;;;;;;;-149.78;100.00;50047.06;5093971;28;20032;-59
2021/09/08 01:32:49;;;;;;;19.15;11.27;;;;;;;-149.78;100.00;50041.19;5085673;28;20047;-60
2021/09/08 01:35:17;;;;;;;19.13;11.25;;;;;;;-149.78;100.00;50037.28;5070000;28;20483;-59
2021/09/08 01:37:45;;;;;;;20.98;11.20;;;;;;;-149.78;100.00;50033.38;5080282;28;20036;-59
2021/09/08 01:40:11;;;;;;;18.65;11.35;;;;;;;-149.78;100.00;50041.19;5093385;28;20036;-59
2021/09/08 01:42:37;;;;;;;23.27;11.50;;;;;;;-149.78;100.00;50068.56;5079719;28;20115;-59
2021/09/08 01:45:03;;;;;;;24.75;11.40;;;;;;;-149.78;100.00;50041.19;5063948;28;20116;-60
2021/09/08 01:47:29;;;;;;;21.65;11.48;;;;;;;-149.78;100.00;50033.38;5085703;28;20039;-60
2021/09/08 01:49:55;;;;;;;19.85;11.30;;;;;;;-149.78;100.00;50029.47;5081233;28;20483;-59
2021/09/08 01:52:20;;;;;;;19.42;11.27;;;;;;;-149.78;100.00;50035.34;5071209;28;20101;-59
2021/09/08 01:54:46;;;;;;;18.00;10.82;;;;;;;-149.78;100.00;50049.03;5080561;28;20032;-59
2021/09/08 01:57:12;;;;;;;21.08;11.05;;;;;;;-149.78;100.00;50076.41;5086200;28;20367;-59
2021/09/08 01:59:38;;;;;;;20.48;11.07;;;;;;;-149.78;100.00;50041.19;5079646;28;20081;-60
2021/09/08 02:02:04;;;;;;;19.92;10.68;;;;;;;-149.78;100.00;50047.06;5091628;28;20127;-59
2021/09/08 02:04:29;;;;;;;20.13;10.68;;;;;;;-149.78;100.00;50041.19;5087812;28;20036;-60
2021/09/08 02:06:55;;;;;;;20.67;11.32;;;;;;;-149.78;100.00;50070.53;5076890;28;20028;-59
2021/09/08 02:09:21;;;;;;;21.95;11.18;;;;;;;-149.78;100.00;50080.31;5091383;28;20062;-59
2021/09/08 02:11:47;;;;;;;21.00;11.13;;;;;;;-149.78;100.00;50060.75;5092353;28;20055;-60
2021/09/08 02:14:12;;;;;;;18.50;10.73;;;;;;;-149.78;100.00;50056.84;5093789;28;20028;-59
2021/09/08 02:16:38;;;;;;;24.60;11.48;;;;;;;-149.78;100.00;50039.25;5088006;28;20063;-59
2021/09/08 02:19:04;;;;;;;20.52;10.23;;;;;;;-149.78;100.00;50058.78;5089287;28;20032;-59
2021/09/08 02:21:30;;;;;;;23.27;11.70;;;;;;;-149.78;100.00;50088.13;5092510;28;20085;-60
2021/09/08 02:23:56;;;;;;;20.20;11.50;;;;;;;-149.78;100.00;50049.03;5081588;28;20039;-60
2021/09/08 02:26:22;;;;;;;19.45;11.95;;;;;;;-149.78;100.00;50080.31;5087680;28;20075;-59
2021/09/08 02:28:48;;;;;;;22.55;12.30;;;;;;;-149.78;100.00;50086.19;5086629;28;20454;-59
2021/09/08 02:31:13;;;;;;;20.10;11.82;;;;;;;-149.78;100.00;50082.25;5092122;28;20050;-59
2021/09/08 02:33:39;;;;;;;26.95;11.48;;;;;;;-149.78;100.00;50072.50;5084259;28;20110;-59
2021/09/08 02:36:05;;;;;;;24.13;11.27;;;;;;;-149.78;100.00;50111.59;5093562;28;20032;-59
2021/09/08 02:38:32;;;;;;;23.25;11.68;;;;;;;-149.78;100.00;50078.34;5076706;28;20523;-60
2021/09/08 02:41:00;;;;;;;21.98;11.77;;;;;;;-149.78;100.00;50084.22;5084382;28;20028;-60
2021/09/08 02:43:28;;;;;;;20.95;11.80;;;;;;;-149.78;100.00;50049.03;5085895;28;20036;-59
2021/09/08 02:45:54;;;;;;;27.02;12.65;;;;;;;-149.78;100.00;50095.94;5087723;28;20036;-59
2021/09/08 02:48:20;;;;;;;21.95;11.10;;;;;;;-149.78;100.00;50080.31;5092188;28;20031;-60
2021/09/08 02:50:45;;;;;;;24.77;12.05;;;;;;;-149.78;100.00;50092.03;5092004;28;20043;-59
2021/09/08 02:53:11;;;;;;;22.42;11.38;;;;;;;-149.78;100.00;50094.00;5086227;28;20040;-59
2021/09/08 02:55:40;;;;;;;22.85;12.63;;;;;;;-149.78;100.00;50099.88;5078765;28;20043;-59
2021/09/08 02:58:06;;;;;;;25.45;12.93;;;;;;;-149.78;100.00;50084.22;5083861;28;20467;-59
2021/09/08 03:00:32;;;;;;;28.77;13.10;;;;;;;-149.78;100.00;50090.09;5084881;28;20040;-60
2021/09/08 03:02:57;;;;;;;22.15;11.73;;;;;;;-149.78;100.00;50084.22;5086800;28;20111;-59
2021/09/08 03:05:23;;;;;;;25.15;12.18;;;;;;;-149.78;100.00;50119.41;5093326;28;20032;-59
2021/09/08 03:07:48;;;;;;;25.52;12.07;;;;;;;-149.78;100.00;50107.69;5092631;28;20036;-60
2021/09/08 03:10:14;;;;;;;26.67;13.35;;;;;;;-149.78;100.00;50095.94;5088268;28;20040;-59
2021/09/08 03:12:40;;;;;;;24.98;11.95;;;;;;;-149.78;100.00;50111.59;5086376;28;20043;-59
2021/09/08 03:15:06;;;;;;;24.88;13.55;;;;;;;-149.78;100.00;50119.41;5083737;28;20044;-60
2021/09/08 03:17:32;;;;;;;24.20;12.35;;;;;;;-149.78;100.00;50127.25;5090793;28;20040;-60
2021/09/08 03:19:58;;;;;;;23.45;11.90;;;;;;;-149.78;100.00;50101.81;5089273;28;20039;-59
2021/09/08 03:22:26;;;;;;;21.90;12.20;;;;;;;-149.78;100.00;50090.09;5064025;28;20407;-60
2021/09/08 03:24:51;;;;;;;23.67;11.80;;;;;;;-149.78;100.00;50072.50;5086605;28;20027;-60
2021/09/08 03:27:17;;;;;;;25.67;11.77;;;;;;;-149.78;100.00;50092.03;5078720;28;20024;-60
2021/09/08 03:29:42;;;;;;;24.90;11.73;;;;;;;-149.78;100.00;50146.81;5086226;28;20116;-59
2021/09/08 03:32:08;;;;;;;27.30;13.05;;;;;;;-149.78;100.00;50135.06;5078468;28;20044;-59
2021/09/08 03:34:34;;;;;;;20.85;11.63;;;;;;;-149.78;100.00;50107.69;5091542;28;20490;-59
2021/09/08 03:37:00;;;;;;;24.30;12.18;;;;;;;-149.78;100.00;50074.44;5089787;28;20036;-60
2021/09/08 03:39:25;;;;;;;24.63;13.23;;;;;;;-149.78;100.00;50084.22;5085195;28;20033;-59
2021/09/08 03:41:52;;;;;;;23.55;11.73;;;;;;;-149.78;100.00;50127.25;5071833;28;20118;-59
2021/09/08 03:44:17;;;;;;;22.75;11.93;;;;;;;-149.78;100.00;50113.56;5074496;28;20165;-59
2021/09/08 03:46:43;;;;;;;23.95;11.68;;;;;;;-149.78;100.00;50092.03;5081367;28;20378;-59
2021/09/08 03:49:08;;;;;;;24.48;12.40;;;;;;;-149.78;100.00;50076.41;5079193;28;20040;-60
2021/09/08 03:51:34;;;;;;;20.88;11.55;;;;;;;-149.78;100.00;50129.19;5090886;28;20032;-60
2021/09/08 03:53:59;;;;;;;23.08;12.57;;;;;;;-149.78;100.00;50105.72;5090101;28;20054;-59
2021/09/08 03:56:26;;;;;;;24.58;11.68;;;;;;;-149.78;100.00;50123.34;5090587;28;20173;-59
2021/09/08 03:58:52;;;;;;;23.25;11.98;;;;;;;-149.78;100.00;50127.25;5074187;28;20097;-60
2021/09/08 04:01:18;;;;;;;20.52;11.02;;;;;;;-149.78;100.00;50076.41;5077119;28;20032;-59
2021/09/08 04:03:47;;;;;;;28.77;11.93;;;;;;;-149.78;100.00;50111.59;5091814;28;20036;-59
2021/09/08 04:06:13;;;;;;;24.05;11.18;;;;;;;-149.78;100.00;50115.50;5088535;28;20035;-60
2021/09/08 04:08:39;;;;;;;24.50;11.63;;;;;;;-149.78;100.00;50111.59;5074646;28;20028;-60
2021/09/08 04:11:05;;;;;;;23.63;11.93;;;;;;;-149.78;100.00;50146.81;5082137;28;20383;-60
2021/09/08 04:13:30;;;;;;;25.25;12.05;;;;;;;-149.78;100.00;50111.59;5089088;28;20057;-59
2021/09/08 04:15:56;;;;;;;25.75;11.80;;;;;;;-149.78;100.00;50099.88;5089800;28;20039;-59
2021/09/08 04:18:22;;;;;;;22.77;11.80;;;;;;;-149.78;100.00;50123.34;5072579;28;20052;-59
2021/09/08 04:20:48;;;;;;;23.40;12.30;;;;;;;-149.78;100.00;50150.72;5089620;28;20028;-59
2021/09/08 04:23:13;;;;;;;25.60;13.20;;;;;;;-149.78;100.00;50115.50;5090854;28;20035;-59
2021/09/08 04:25:40;;;;;;;24.58;13.05;;;;;;;-149.78;100.00;50123.34;5082583;28;20082;-60
2021/09/08 04:28:07;;;;;;;25.40;12.70;;;;;;;-149.78;100.00;50131.16;5077694;28;20024;-59
2021/09/08 04:30:32;;;;;;;22.98;12.25;;;;;;;-149.78;100.00;50123.34;5076793;28;20039;-59
2021/09/08 04:32:58;;;;;;;25.08;13.20;;;;;;;-149.78;100.00;50150.72;5085452;28;20040;-59
2021/09/08 04:35:24;;;;;;;23.02;12.90;;;;;;;-149.78;100.00;50140.94;5079409;28;20050;-59
2021/09/08 04:37:49;;;;;;;28.38;13.50;;;;;;;-149.78;100.00;50119.41;5058952;28;20055;-59
2021/09/08 04:40:15;;;;;;;27.75;13.32;;;;;;;-149.78;100.00;50135.06;5080472;28;20533;-59
2021/09/08 04:42:41;;;;;;;24.90;13.60;;;;;;;-149.78;100.00;50142.88;5084298;28;20027;-60
2021/09/08 04:45:08;;;;;;;25.08;13.20;;;;;;;-149.78;100.00;50146.81;5078418;28;20033;-60
2021/09/08 04:47:34;;;;;;;27.98;14.35;;;;;;;-149.78;100.00;50115.50;5085871;28;20057;-60
2021/09/08 04:50:00;;;;;;;24.85;14.10;;;;;;;-149.78;100.00;50117.47;5090943;28;20502;-60
2021/09/08 04:52:25;;;;;;;24.85;13.07;;;;;;;-149.78;100.00;50115.50;5085748;28;20479;-59
2021/09/08 04:54:51;;;;;;;26.90;14.20;;;;;;;-149.78;100.00;50152.66;5070758;28;20055;-59
2021/09/08 04:57:17;;;;;;;24.88;14.43;;;;;;;-149.78;100.00;50119.41;5081491;28;20464;-59
2021/09/08 04:59:43;;;;;;;27.45;13.80;;;;;;;-149.78;100.00;50150.72;5079087;28;20491;-60
2021/09/08 05:02:09;;;;;;;23.83;12.65;;;;;;;-149.78;100.00;50123.34;5088123;28;20032;-59
2021/09/08 05:04:34;;;;;;;23.45;13.10;;;;;;;-149.78;100.00;50138.97;5082197;28;20490;-59
2021/09/08 05:07:00;;;;;;;25.50;13.05;;;;;;;-149.78;100.00;50144.84;5084143;28;20064;-60
2021/09/08 05:09:26;;;;;;;29.92;14.20;;;;;;;-149.78;100.00;50154.63;5081610;28;20477;-59
2021/09/08 05:11:52;;;;;;;26.25;13.75;;;;;;;-149.78;100.00;50107.69;5081895;28;20047;-59
2021/09/08 05:14:18;;;;;;;28.45;14.07;;;;;;;-149.78;100.00;50121.38;5077534;28;20040;-59
2021/09/08 05:16:44;;;;;;;25.30;13.32;;;;;;;-149.78;100.00;50154.63;5089956;28;20406;-59
2021/09/08 05:19:10;;;;;;;28.42;14.88;;;;;;;-149.78;100.00;50178.09;5089711;28;20033;-60
2021/09/08 05:21:36;;;;;;;27.20;13.80;;;;;;;-149.78;100.00;50146.81;5077671;28;20043;-60
2021/09/08 05:24:01;;;;;;;26.65;14.23;;;;;;;-149.78;100.00;50117.47;5077964;28;20029;-59
2021/09/08 05:26:27;;;;;;;27.60;14.77;;;;;;;-149.78;100.00;50127.25;5089681;28;20032;-59
2021/09/08 05:28:52;;;;;;;26.33;14.60;;;;;;;-149.78;100.00;50144.84;5084247;28;20077;-59
2021/09/08 05:31:18;;;;;;;26.65;14.32;;;;;;;-149.78;100.00;50166.34;5085592;28;20048;-60
2021/09/08 05:33:44;;;;;;;26.50;14.32;;;;;;;-149.78;100.00;50164.41;5081650;28;20043;-60
2021/09/08 05:36:10;;;;;;;27.00;14.40;;;;;;;-149.78;100.00;50121.38;5089145;28;20036;-59
2021/09/08 05:38:35;;;;;;;29.88;14.45;;;;;;;-149.78;100.00;50189.81;5090444;28;20031;-59
2021/09/08 05:41:05;;;;;;;27.98;14.82;;;;;;;-149.78;100.00;50146.81;5083221;28;20039;-60
2021/09/08 05:43:32;;;;;;;29.05;15.18;;;;;;;-149.78;100.00;50144.84;5083423;28;20132;-60
2021/09/08 05:45:57;;;;;;;27.83;14.63;;;;;;;-149.78;100.00;50162.44;5087656;28;20035;-59
2021/09/08 05:48:23;;;;;;;24.92;13.98;;;;;;;-149.78;100.00;50158.53;5082685;28;20055;-59
2021/09/08 05:50:49;;;;;;;27.00;15.20;;;;;;;-149.78;100.00;50123.34;5091305;28;20039;-59
2021/09/08 05:53:14;;;;;;;30.80;14.73;;;;;;;-149.78;100.00;50138.97;5085658;28;20086;-59
2021/09/08 05:55:40;;;;;;;26.63;14.13;;;;;;;-149.78;100.00;50150.72;5086188;28;20043;-60
2021/09/08 05:58:06;;;;;;;28.60;14.70;;;;;;;-149.78;100.00;50133.09;5092071;28;20028;-59
2021/09/08 06:00:32;;;;;;;29.95;13.93;;;;;;;-149.78;100.00;50140.94;5090866;28;20040;-59
2021/09/08 06:02:58;;;;;;;28.38;15.25;;;;;;;-149.78;100.00;50158.53;5087180;28;20035;-59
2021/09/08 06:05:24;;;;;;;31.13;14.65;;;;;;;-149.78;100.00;50172.22;5091135;28;20040;-59
2021/09/08 06:07:49;;;;;;;24.95;13.70;;;;;;;-149.78;100.00;50182.00;5067079;28;20028;-60
2021/09/08 06:10:18;;;;;;;28.08;14.90;;;;;;;-149.78;100.00;50138.97;5092202;28;20036;-59
2021/09/08 06:12:45;;;;;;;29.75;14.30;;;;;;;-149.78;100.00;50135.06;5091049;28;21612;-59
2021/09/08 06:15:14;;;;;;;24.10;14.13;;;;;;;-149.78;100.00;50162.44;5092123;28;20047;-59
2021/09/08 06:17:40;;;;;;;28.60;14.88;;;;;;;-149.78;100.00;50148.75;5089188;28;20050;-59
2021/09/08 06:20:08;;;;;;;27.25;15.13;;;;;;;-149.78;100.00;50135.06;5091270;28;20509;-60
2021/09/08 06:22:34;;;;;;;27.92;14.98;;;;;;;-149.78;100.00;50164.41;5086849;28;20039;-59
2021/09/08 06:24:59;;;;;;;29.15;15.77;;;;;;;-149.78;100.00;50154.63;5085403;28;20039;-59
2021/09/08 06:27:25;;;;;;;27.30;14.70;;;;;;;-149.78;100.00;50166.34;5090945;28;20035;-59
2021/09/08 06:29:51;;;;;;;31.10;15.60;;;;;;;-149.78;100.00;50144.84;5090586;28;20040;-60
2021/09/08 06:32:17;;;;;;;25.30;14.43;;;;;;;-149.78;100.00;50111.59;5091608;28;20040;-59
2021/09/08 06:34:46;;;;;;;31.13;15.48;;;;;;;-149.78;100.00;50125.28;5090748;28;20028;-59
2021/09/08 06:37:12;;;;;;;28.38;15.32;;;;;;;-149.78;100.00;50084.22;5089822;28;20422;-59
2021/09/08 06:39:38;;;;;;;28.50;14.30;;;;;;;-149.78;100.00;50101.81;5090233;28;20062;-59
2021/09/08 06:42:04;;;;;;;30.60;15.05;;;;;;;-149.78;100.00;50170.25;5089467;28;20060;-59
2021/09/08 06:44:29;;;;;;;28.63;15.43;;;;;;;-149.78;100.00;50117.47;5085184;28;21439;-60
2021/09/08 06:46:55;;;;;;;27.08;14.60;;;;;;;-149.78;100.00;50150.72;5080070;28;20029;-60
2021/09/08 06:49:22;;;;;;;24.35;14.07;;;;;;;-149.78;100.00;50107.69;5089206;28;20078;-59
2021/09/08 06:51:48;;;;;;;28.77;13.23;;;;;;;-149.78;100.00;50043.16;5060503;28;20035;-60
2021/09/08 06:54:14;;;;;;;22.85;12.55;;;;;;;-149.78;100.00;50052.94;5085424;28;20066;-60
2021/09/08 06:56:40;;;;;;;23.73;13.95;;;;;;;-149.78;100.00;50002.09;5086635;28;20031;-61
2021/09/08 06:59:06;;;;;;;23.02;12.38;;;;;;;-149.78;100.00;49980.56;5087216;28;20115;-62
2021/09/08 07:01:32;;;;;;;18.25;11.43;;;;;;;-149.78;100.00;49912.13;5088122;28;20173;-63
2021/09/08 07:03:58;;;;;;;23.73;12.02;;;;;;;-149.78;100.00;49927.78;5088977;28;20048;-62
2021/09/08 07:06:23;;;;;;;17.77;11.00;;;;;;;-149.78;77.93;49880.84;5092236;28;20032;-62
2021/09/08 07:08:50;;;;;;;19.60;10.38;;;;;;;-149.78;66.12;49898.44;5087063;28;20055;-62
2021/09/08 07:11:17;;;;;;;14.93;9.95;;;;;;;-149.78;60.75;49845.66;5089101;28;20064;-62
2021/09/08 07:13:43;;;;;;;16.13;10.15;;;;;;;-149.78;58.18;49886.72;5090665;28;20050;-63
2021/09/08 07:16:09;;;;;;;17.67;11.15;;;;;;;-149.78;56.12;49837.81;5065690;28;20088;-62
2021/09/08 07:18:35;;;;;;;17.52;10.50;;;;;;;-149.78;55.43;49859.34;5088898;28;20058;-62
2021/09/08 07:21:02;;;;;;;16.30;9.98;;;;;;;-149.78;56.92;49865.19;5080614;28;20039;-62
2021/09/08 07:23:27;;;;;;;14.77;10.52;;;;;;;-149.78;53.03;49833.91;5088779;28;20032;-62
2021/09/08 07:25:54;;;;;;;13.98;10.40;;;;;;;-149.78;53.29;49853.47;5086485;28;20073;-62
2021/09/08 07:28:20;;;;;;;16.83;10.45;;;;;;;-149.78;52.70;49826.09;5089433;28;20028;-62
2021/09/08 07:30:48;;;;;;;16.80;10.70;;;;;;;-149.78;52.76;49822.19;5082541;28;20532;-62
2021/09/08 07:33:14;;;;;;;14.88;9.77;;;;;;;-149.78;51.50;49777.22;5081405;28;20048;-62
2021/09/08 07:35:40;;;;;;;19.30;11.32;;;;;;;-149.78;50.95;49822.19;5065252;28;20031;-62
2021/09/08 07:38:05;;;;;;;17.17;11.48;;;;;;;-149.78;50.24;49806.53;5082726;28;20395;-62
2021/09/08 07:40:32;;;;;;;18.08;11.02;;;;;;;-149.78;50.64;49792.84;5077438;28;20024;-62
2021/09/08 07:42:58;;;;;;;16.42;12.05;;;;;;;-149.78;51.14;49785.03;5088913;28;20088;-62
2021/09/08 07:45:24;;;;;;;17.75;12.25;;;;;;;-149.78;49.17;49796.75;5085331;28;20488;-62
2021/09/08 07:47:50;;;;;;;18.02;11.98;;;;;;;-149.78;49.24;49822.19;5085947;28;20033;-61
2021/09/08 07:50:16;;;;;;;15.82;11.63;;;;;;;-149.78;48.51;49786.97;5090051;28;20032;-62
2021/09/08 07:52:42;;;;;;;16.95;11.80;;;;;;;-149.78;47.99;49794.81;5061920;28;20044;-62
2021/09/08 07:55:08;;;;;;;21.05;12.27;;;;;;;-149.78;47.08;49755.69;5079986;28;20024;-62
2021/09/08 07:57:34;;;;;;;18.42;12.27;;;;;;;-149.78;46.64;49753.75;5084668;28;20417;-62
2021/09/08 07:59:59;;;;;;;17.90;12.50;;;;;;;-149.78;45.77;49763.53;5087778;28;20094;-62
2021/09/08 08:02:25;;;;;;;18.73;11.93;;;;;;;-149.78;44.96;49792.84;5080748;28;20052;-62
2021/09/08 08:04:50;;;;;;;17.90;12.82;;;;;;;-149.78;45.08;49775.25;5089482;28;20043;-62
2021/09/08 08:07:16;;;;;;;21.35;13.15;;;;;;;-149.78;45.50;49759.59;5090438;28;20036;-62
2021/09/08 08:09:43;;;;;;;22.20;13.50;;;;;;;-149.78;46.19;49783.06;5090461;28;20047;-62
2021/09/08 08:12:11;;;;;;;21.35;13.38;;;;;;;-149.78;45.67;49790.91;5075868;28;20036;-62
2021/09/08 08:14:38;;;;;;;19.00;12.70;;;;;;;-149.78;45.58;49775.25;5080701;28;20043;-62
2021/09/08 08:17:04;;;;;;;17.40;12.63;;;;;;;-149.78;46.79;49759.59;5088157;28;20037;-63
2021/09/08 08:19:31;;;;;;;21.30;14.27;;;;;;;-149.78;45.33;49757.66;5086212;28;20402;-62
2021/09/08 08:21:56;;;;;;;23.65;13.02;;;;;;;-149.78;44.42;49755.69;5089004;28;20039;-62
2021/09/08 08:24:22;;;;;;;21.90;14.07;;;;;;;-149.78;44.33;49761.56;5087884;28;20028;-63
2021/09/08 08:26:48;;;;;;;22.75;14.25;;;;;;;-149.78;43.89;49755.69;5068098;28;20391;-62
2021/09/08 08:29:14;;;;;;;21.27;14.23;;;;;;;-149.78;44.20;49716.59;5083842;28;20044;-62
2021/09/08 08:31:39;;;;;;;25.95;14.70;;;;;;;-149.78;44.79;49732.22;5091037;28;20394;-63
2021/09/08 08:34:05;;;;;;;20.67;14.38;;;;;;;-149.78;43.73;49726.38;5090624;28;20464;-63
2021/09/08 08:36:31;;;;;;;23.80;14.38;;;;;;;-149.78;43.59;49720.50;5086758;28;20031;-62
2021/09/08 08:38:56;;;;;;;31.65;14.20;;;;;;;-149.78;43.45;49724.41;5088660;28;20048;-64
2021/09/08 08:41:23;;;;;;;24.77;14.30;;;;;;;-149.78;41.90;49712.69;5091960;28;20052;-63
2021/09/08 08:43:49;;;;;;;25.83;15.43;;;;;;;-149.78;43.08;49700.94;5086832;28;20456;-63
2021/09/08 08:46:16;;;;;;;25.70;14.70;;;;;;;-149.78;40.94;49657.94;5068371;28;20100;-63
2021/09/08 08:48:42;;;;;;;22.05;14.30;;;;;;;-149.78;40.04;49622.72;5081339;28;20111;-63
2021/09/08 08:51:09;;;;;;;25.63;14.57;;;;;;;-149.78;41.19;49681.38;5093235;28;20348;-61
2021/09/08 08:53:34;;;;;;;23.40;15.40;;;;;;;-149.78;40.38;49620.78;5085057;28;20387;-61
2021/09/08 08:56:00;;;;;;;26.73;14.82;;;;;;;-149.78;39.93;49667.69;5083793;28;20043;-61
2021/09/08 08:58:26;;;;;;;25.35;16.00;;;;;;;-149.78;40.15;49681.38;5082882;28;20037;-61
2021/09/08 09:01:21;;;;;;;22.80;15.00;;;;;;;-149.78;39.53;49634.47;5080082;28;20037;-61
2021/09/08 09:04:05;;;;;;;23.70;15.93;;;;;;;-149.78;39.22;49689.22;5074225;28;20463;-61
2021/09/08 09:06:32;;;;;;;25.98;16.17;;;;;;;-149.78;38.62;49622.72;5083637;28;20090;-65
2021/09/08 09:08:58;;;;;;;23.83;15.60;;;;;;;-149.78;38.24;49618.81;5086926;28;20052;-66
2021/09/08 09:11:24;;;;;;;30.90;16.90;;;;;;;-149.78;39.89;49697.03;5083909;28;20094;-66
2021/09/08 09:13:49;;;;;;;25.27;16.05;;;;;;;-149.78;40.31;49654.00;5080632;28;20082;-65
2021/09/08 09:16:15;;;;;;;22.60;15.30;;;;;;;-149.78;38.94;49648.16;5090375;28;20115;-65
2021/09/08 09:18:43;;;;;;;25.23;16.75;;;;;;;-149.78;37.67;49628.59;5092537;28;20097;-65
2021/09/08 09:21:13;;;;;;;26.67;17.27;;;;;;;-149.78;37.30;49614.91;5091627;28;20089;-65
2021/09/08 09:23:47;;;;;;;24.23;16.13;;;;;;;-149.78;37.55;49599.25;5090534;28;20124;-65
2021/09/08 09:26:19;;;;;;;24.80;15.60;;;;;;;-149.78;38.26;49654.00;5090791;28;20035;-66
2021/09/08 09:28:46;;;;;;;25.45;16.42;;;;;;;-149.78;38.00;49638.38;5090636;28;20041;-65
2021/09/08 09:31:32;;;;;;;25.27;16.48;;;;;;;-149.78;36.87;49628.59;5090136;28;20047;-65
2021/09/08 09:33:58;;;;;;;29.83;18.13;;;;;;;-149.78;36.11;49591.44;5090439;28;20040;-65
2021/09/08 09:36:31;;;;;;;32.42;18.50;;;;;;;-149.78;36.90;49607.09;5090322;28;20093;-65
2021/09/08 09:38:58;;;;;;;28.65;17.52;;;;;;;-149.78;36.50;49622.72;5062348;28;20076;-65
2021/09/08 09:41:26;;;;;;;29.55;17.40;;;;;;;-149.78;35.54;49595.34;5094481;28;20039;-65
2021/09/08 09:43:52;;;;;;;25.95;15.88;;;;;;;-149.78;35.85;49601.22;5088155;28;20463;-65
2021/09/08 09:46:17;;;;;;;20.02;13.35;;;;;;;-149.78;35.25;49579.72;5086991;28;20032;-65
2021/09/08 09:48:43;;;;;;;23.00;14.13;;;;;;;-149.78;34.42;49622.72;5084837;28;20071;-66
2021/09/08 09:51:14;;;;;;;24.20;15.70;;;;;;;-149.78;35.35;49571.88;5086925;28;20450;-67
2021/09/08 09:53:41;;;;;;;26.52;17.40;;;;;;;-149.78;35.74;49616.88;5090253;28;20081;-65
2021/09/08 09:56:08;;;;;;;28.92;17.35;;;;;;;-149.78;35.53;49564.06;5081206;28;20039;-65
2021/09/08 09:58:36;;;;;;;25.08;16.58;;;;;;;-149.78;35.20;49583.63;5086269;28;20052;-65
2021/09/08 10:01:04;;;;;;;28.90;15.55;;;;;;;-149.78;36.56;49624.69;5082145;28;20081;-65
2021/09/08 10:03:30;;;;;;;25.50;17.60;;;;;;;-149.78;35.77;49581.66;5078884;28;20036;-65
2021/09/08 10:05:57;;;;;;;28.40;17.90;;;;;;;-149.78;35.11;49585.56;5080986;28;20497;-65
2021/09/08 10:08:27;;;;;;;25.60;16.63;;;;;;;-149.78;35.35;49579.72;5083435;28;20024;-65
2021/09/08 10:10:55;;;;;;;23.73;17.35;;;;;;;-149.78;34.81;49571.88;5077472;28;20055;-65
2021/09/08 10:13:26;;;;;;;26.65;16.58;;;;;;;-149.78;34.57;49599.25;5086734;28;20024;-65
2021/09/08 10:15:53;;;;;;;24.20;15.25;;;;;;;-149.78;34.74;49607.09;5086317;28;20153;-65
2021/09/08 10:18:25;;;;;;;22.08;13.95;;;;;;;-149.78;36.42;49650.09;5079377;28;20075;-65
2021/09/08 10:21:04;;;;;;;22.15;13.73;;;;;;;-149.78;36.64;49614.91;5089954;28;20436;-65
2021/09/08 10:23:38;;;;;;;26.83;16.33;;;;;;;-149.78;37.21;49650.09;5086382;28;20032;-64
2021/09/08 10:26:18;;;;;;;22.30;14.82;;;;;;;-149.78;37.90;49650.09;5079794;28;20048;-64
2021/09/08 10:28:45;;;;;;;26.23;15.20;;;;;;;-149.78;39.52;49689.22;5089278;28;20434;-64
2021/09/08 10:31:13;;;;;;;23.20;15.43;;;;;;;-149.78;39.99;49700.94;5071728;28;20044;-65
2021/09/08 10:33:41;;;;;;;26.00;14.80;;;;;;;-149.78;38.66;49657.94;5089052;28;20032;-65
2021/09/08 10:36:10;;;;;;;27.02;14.40;;;;;;;-149.78;37.69;49654.00;5088335;28;20088;-65
2021/09/08 10:38:36;;;;;;;22.92;13.88;;;;;;;-149.78;39.17;49708.75;5088077;28;20039;-65
2021/09/08 10:41:04;;;;;;;22.35;13.52;;;;;;;-149.78;39.85;49685.31;5088621;28;20036;-65
2021/09/08 10:43:34;;;;;;;24.42;13.70;;;;;;;-149.78;38.54;49665.75;5089966;28;20024;-65
2021/09/08 10:46:01;;;;;;;22.33;13.70;;;;;;;-149.78;39.12;49650.09;5087100;28;20085;-60
2021/09/08 10:48:41;;;;;;;23.30;14.82;;;;;;;-149.78;39.80;49681.38;5072299;28;20028;-60
2021/09/08 10:51:09;;;;;;;21.48;13.85;;;;;;;-149.78;40.11;49644.25;5091171;28;20106;-60
2021/09/08 10:53:37;;;;;;;22.67;11.82;;;;;;;-149.78;39.54;49661.84;5068719;28;20028;-59
2021/09/08 10:56:05;;;;;;;18.98;12.00;;;;;;;-149.78;38.42;49634.47;5066084;28;20024;-60